Time;durP1;ratioP1;P1;durP2;ratioP2;P2;SDS_P1;SDS_P2;PMS_P1;PMS_P2;Temp;Humidity;BMP_temperature;BMP_pressure;BME280_temperature;BME280_humidity;BME280_pressure;Samples;Min_cycle;Max_cycle;Signal;HPM_P1;HPM_P2
2021/04/10 00:00:00;;;;;;;35.05;15.65;;;;;;;1.76;61.71;100345.91;3550939;27;20047;-45
2021/04/10 00:01:42;;;;;;;34.15;15.65;;;;;;;1.73;61.15;100344.03;3551172;27;20089;-44
2021/04/10 00:03:24;;;;;;;31.05;13.93;;;;;;;1.72;60.85;100342.28;3550889;27;20046;-44
2021/04/10 00:05:06;;;;;;;31.90;14.48;;;;;;;1.69;60.85;100344.66;3548738;27;20128;-45
2021/04/10 00:06:48;;;;;;;29.95;13.20;;;;;;;1.69;60.91;100336.06;3552762;27;20056;-54
2021/04/10 00:08:29;;;;;;;28.48;13.73;;;;;;;1.69;60.43;100342.09;3548809;27;20103;-45
2021/04/10 00:10:13;;;;;;;28.88;14.00;;;;;;;1.69;60.82;100338.63;3549861;27;20499;-44
2021/04/10 00:11:54;;;;;;;34.38;16.48;;;;;;;1.68;61.61;100342.88;3552070;27;20422;-54
2021/04/10 00:13:36;;;;;;;36.80;16.77;;;;;;;1.66;62.57;100341.03;3550689;27;20431;-54
2021/04/10 00:15:19;;;;;;;26.73;14.40;;;;;;;1.65;62.34;100340.13;3553094;27;20522;-44
2021/04/10 00:17:01;;;;;;;26.45;12.38;;;;;;;1.63;61.11;100333.16;3548590;27;20430;-44
2021/04/10 00:18:43;;;;;;;30.15;13.32;;;;;;;1.62;61.56;100339.97;3552378;27;20095;-44
2021/04/10 00:20:26;;;;;;;27.50;12.48;;;;;;;1.62;61.20;100337.41;3549144;27;20039;-51
2021/04/10 00:22:07;;;;;;;25.05;12.70;;;;;;;1.61;61.51;100335.63;3549716;27;20051;-51
2021/04/10 00:23:49;;;;;;;27.33;13.10;;;;;;;1.58;61.02;100332.88;3552636;27;20054;-44
2021/04/10 00:25:31;;;;;;;30.23;15.27;;;;;;;1.57;62.44;100341.34;3550436;27;20047;-54
2021/04/10 00:27:12;;;;;;;26.35;13.60;;;;;;;1.59;63.05;100338.88;3552122;27;20133;-54
2021/04/10 00:28:53;;;;;;;25.02;12.70;;;;;;;1.59;62.90;100337.22;3548739;27;20042;-54
2021/04/10 00:30:35;;;;;;;27.33;13.50;;;;;;;1.58;62.06;100342.22;3551558;27;20050;-53
2021/04/10 00:32:16;;;;;;;26.48;13.98;;;;;;;1.55;61.82;100338.69;3549146;27;20043;-54
2021/04/10 00:33:57;;;;;;;28.10;13.63;;;;;;;1.52;62.32;100332.50;3549502;27;20579;-52
2021/04/10 00:35:39;;;;;;;27.65;14.38;;;;;;;1.49;62.02;100333.19;3551983;27;20093;-53
2021/04/10 00:37:20;;;;;;;27.50;14.02;;;;;;;1.46;61.97;100335.59;3548662;27;20119;-46
2021/04/10 00:39:02;;;;;;;25.45;13.23;;;;;;;1.43;61.96;100337.06;3552879;27;20062;-51
2021/04/10 00:40:43;;;;;;;26.23;13.60;;;;;;;1.38;61.48;100337.66;3548739;27;20046;-54
2021/04/10 00:42:25;;;;;;;27.70;13.43;;;;;;;1.33;61.60;100338.16;3551489;27;20058;-52
2021/04/10 00:44:06;;;;;;;26.52;12.90;;;;;;;1.30;62.00;100335.44;3549698;27;20047;-44
2021/04/10 00:45:48;;;;;;;24.08;12.02;;;;;;;1.25;62.43;100332.59;3551597;27;20503;-53
2021/04/10 00:47:29;;;;;;;26.15;12.23;;;;;;;1.22;61.79;100341.75;3553385;27;20061;-50
2021/04/10 00:49:11;;;;;;;22.48;11.48;;;;;;;1.17;62.32;100342.34;3549029;27;20062;-53
2021/04/10 00:50:53;;;;;;;24.90;13.05;;;;;;;1.16;63.81;100342.28;3552739;27;20050;-49
2021/04/10 00:52:36;;;;;;;27.35;13.75;;;;;;;1.19;64.66;100347.53;3548433;27;20055;-45
2021/04/10 00:54:18;;;;;;;25.88;12.52;;;;;;;1.24;64.62;100330.81;3551683;27;20099;-46
2021/04/10 00:56:04;;;;;;;23.13;11.90;;;;;;;1.27;63.71;100336.13;3551743;27;20051;-45
2021/04/10 00:57:45;;;;;;;22.77;10.77;;;;;;;1.27;62.78;100338.69;3553211;27;20047;-50
2021/04/10 00:59:26;;;;;;;22.40;12.50;;;;;;;1.28;63.68;100342.13;3554412;27;20051;-52
2021/04/10 01:01:08;;;;;;;21.35;11.07;;;;;;;1.28;63.95;100342.13;3550600;27;20078;-52
2021/04/10 01:02:50;;;;;;;23.30;11.98;;;;;;;1.26;63.22;100343.69;3554226;27;20100;-51
2021/04/10 01:04:32;;;;;;;21.98;11.82;;;;;;;1.24;63.48;100346.16;3550834;27;20400;-45
2021/04/10 01:06:13;;;;;;;23.30;12.52;;;;;;;1.22;63.85;100345.19;3554038;27;20054;-52
2021/04/10 01:07:55;;;;;;;27.58;12.77;;;;;;;1.22;64.05;100342.63;3554022;27;20046;-45
2021/04/10 01:09:37;;;;;;;23.88;12.23;;;;;;;1.20;63.66;100345.91;3552007;27;20055;-44
2021/04/10 01:11:32;;;;;;;23.40;12.98;;;;;;;1.15;62.15;100351.59;3552243;27;20099;-51
2021/04/10 01:13:34;;;;;;;24.45;12.18;;;;;;;1.11;62.91;100344.53;3549687;27;20318;-45
2021/04/10 01:15:25;;;;;;;31.55;12.32;;;;;;;1.08;62.19;100344.31;3552930;27;20051;-54
2021/04/10 01:17:10;;;;;;;23.50;12.07;;;;;;;1.08;63.54;100344.31;3551710;27;20050;-52
2021/04/10 01:18:59;;;;;;;26.15;12.40;;;;;;;1.09;63.47;100345.19;3551592;27;20052;-44
2021/04/10 01:21:08;;;;;;;25.50;12.30;;;;;;;1.13;63.63;100345.50;3555005;27;20054;-50
2021/04/10 01:23:23;;;;;;;23.23;11.60;;;;;;;1.13;62.86;100344.63;3551876;27;20495;-45
2021/04/10 01:25:06;;;;;;;21.52;11.75;;;;;;;1.13;62.67;100347.19;3526723;27;20351;-53
2021/04/10 01:27:23;;;;;;;24.98;11.88;;;;;;;1.12;62.69;100347.94;3555168;27;20057;-45
2021/04/10 01:29:13;;;;;;;20.42;11.18;;;;;;;1.12;62.81;100348.81;3552917;27;20072;-50
2021/04/10 01:30:55;;;;;;;;;;;;;;;1.12;62.85;100338.59;3550901;27;20081;-51
2021/04/10 01:32:49;;;;;;;23.05;11.25;;;;;;;1.13;62.59;100344.63;3554467;27;19975;-45
2021/04/10 01:34:34;;;;;;;22.98;11.23;;;;;;;1.14;62.50;100346.38;3549548;27;20505;-44
2021/04/10 01:36:21;;;;;;;24.05;10.63;;;;;;;1.15;63.46;100353.25;3552071;27;20058;-53
2021/04/10 01:38:07;;;;;;;20.35;11.15;;;;;;;1.16;63.19;100342.28;3552670;27;20047;-44
2021/04/10 01:39:50;;;;;;;20.30;10.45;;;;;;;1.18;62.90;100343.25;3554243;27;20053;-46
2021/04/10 01:41:33;;;;;;;25.17;11.93;;;;;;;1.17;63.13;100349.13;3553923;27;20528;-51
2021/04/10 01:43:15;;;;;;;22.33;10.95;;;;;;;1.18;62.92;100343.25;3550512;27;20051;-45
2021/04/10 01:45:00;;;;;;;21.65;10.65;;;;;;;1.20;62.12;100351.00;3552647;27;20134;-53
2021/04/10 01:46:41;;;;;;;22.23;11.45;;;;;;;1.17;62.39;100347.44;3551818;27;20059;-52
2021/04/10 01:48:26;;;;;;;22.63;11.18;;;;;;;1.18;62.45;100356.00;3550377;27;20050;-45
2021/04/10 01:50:08;;;;;;;21.98;11.82;;;;;;;1.15;62.89;100346.47;3554288;27;20043;-44
2021/04/10 01:51:50;;;;;;;22.35;12.00;;;;;;;1.13;62.54;100348.06;3550702;27;20054;-45
2021/04/10 01:53:34;;;;;;;25.40;12.13;;;;;;;1.12;63.18;100351.38;3554367;27;20047;-50
2021/04/10 01:55:17;;;;;;;27.40;12.75;;;;;;;1.11;62.46;100349.63;3549194;27;20038;-51
2021/04/10 01:57:06;;;;;;;24.98;12.70;;;;;;;1.11;62.63;100346.22;3551371;27;20059;-53
2021/04/10 01:58:48;;;;;;;20.53;10.83;;;;;;;1.10;62.55;100344.44;3552754;27;20112;-46
2021/04/10 02:00:34;;;;;;;23.15;11.10;;;;;;;1.09;62.57;100348.66;3549978;27;20042;-45
2021/04/10 02:02:16;;;;;;;22.20;11.15;;;;;;;1.08;63.00;100346.00;3554133;27;20074;-49
2021/04/10 02:04:00;;;;;;;22.30;10.93;;;;;;;1.07;63.32;100349.34;3551211;27;20179;-45
2021/04/10 02:05:41;;;;;;;24.05;11.32;;;;;;;1.07;63.98;100354.44;3552874;27;20062;-46
2021/04/10 02:07:26;;;;;;;24.10;10.88;;;;;;;1.04;62.87;100352.59;3553826;27;20046;-45
2021/04/10 02:09:09;;;;;;;25.08;11.32;;;;;;;1.03;63.79;100344.84;3550328;27;20054;-45
2021/04/10 02:10:54;;;;;;;18.83;10.77;;;;;;;1.00;62.79;100350.66;3554457;27;20069;-45
2021/04/10 02:12:37;;;;;;;21.88;11.57;;;;;;;0.97;63.71;100351.31;3551301;27;20090;-46
2021/04/10 02:14:22;;;;;;;22.95;11.52;;;;;;;0.94;63.93;100350.25;3552019;27;20460;-54
2021/04/10 02:16:05;;;;;;;21.85;11.35;;;;;;;0.91;63.68;100353.50;3550868;27;20628;-54
2021/04/10 02:17:46;;;;;;;19.98;10.45;;;;;;;0.87;63.28;100351.53;3552265;27;20068;-45
2021/04/10 02:19:28;;;;;;;24.55;11.00;;;;;;;0.85;64.36;100352.22;3554714;27;20053;-44
2021/04/10 02:21:10;;;;;;;21.05;10.82;;;;;;;0.83;63.89;100353.81;3549830;27;20039;-53
2021/04/10 02:22:53;;;;;;;23.60;10.77;;;;;;;0.82;63.90;100352.03;3553480;27;20054;-54
2021/04/10 02:24:36;;;;;;;21.60;10.90;;;;;;;0.80;63.64;100352.81;3550644;27;20054;-45
2021/04/10 02:26:17;;;;;;;25.05;12.57;;;;;;;0.79;63.99;100355.28;3552565;27;20150;-46
2021/04/10 02:27:59;;;;;;;23.08;11.35;;;;;;;0.78;62.86;100351.81;3550815;27;20049;-50
2021/04/10 02:29:41;;;;;;;23.50;11.00;;;;;;;0.77;63.32;100344.97;3551385;27;20520;-45
2021/04/10 02:31:29;;;;;;;21.83;11.07;;;;;;;0.77;62.69;100344.97;3552746;27;20059;-45
2021/04/10 02:33:16;;;;;;;23.98;11.13;;;;;;;0.79;63.31;100350.19;3549833;27;20047;-54
2021/04/10 02:35:03;;;;;;;21.45;10.95;;;;;;;0.78;63.51;100348.41;3554094;27;20526;-45
2021/04/10 02:36:49;;;;;;;22.83;11.00;;;;;;;0.78;63.57;100350.94;3552045;27;20554;-53
2021/04/10 02:38:33;;;;;;;18.35;9.23;;;;;;;0.77;63.17;100347.53;3552266;27;20054;-52
2021/04/10 02:40:17;;;;;;;;;;;;;;;0.78;62.56;100353.50;3551598;27;20047;-52
2021/04/10 02:42:03;;;;;;;17.75;9.15;;;;;;;0.77;62.40;100355.19;3549268;27;19923;-53
2021/04/10 02:43:51;;;;;;;17.83;9.02;;;;;;;0.78;62.42;100354.38;3553109;27;20054;-53
2021/04/10 02:45:34;;;;;;;18.02;9.32;;;;;;;0.78;61.88;100354.38;3549457;27;20085;-50
2021/04/10 02:47:19;;;;;;;16.75;8.85;;;;;;;0.79;63.21;100350.19;3551437;27;20042;-54
2021/04/10 02:49:03;;;;;;;17.90;8.77;;;;;;;0.80;62.92;100349.38;3550820;27;20057;-53
2021/04/10 02:50:46;;;;;;;20.63;8.90;;;;;;;0.81;62.15;100348.59;3549841;27;20080;-52
2021/04/10 02:52:32;;;;;;;17.10;8.35;;;;;;;0.80;62.43;100349.38;3538612;28;20051;-54
2021/04/10 02:54:19;;;;;;;16.25;8.52;;;;;;;0.80;61.88;100351.94;3548541;27;20046;-52
2021/04/10 02:56:02;;;;;;;17.23;8.55;;;;;;;0.80;62.51;100352.81;3552505;27;20052;-53
2021/04/10 02:57:45;;;;;;;17.60;8.45;;;;;;;0.84;63.00;100350.44;3550177;27;20085;-54
2021/04/10 02:59:28;;;;;;;18.38;9.38;;;;;;;0.87;62.74;100351.53;3549564;27;20050;-54
2021/04/10 03:01:10;;;;;;;16.27;8.82;;;;;;;0.89;62.50;100352.50;3553082;27;20047;-52
2021/04/10 03:02:55;;;;;;;18.65;9.32;;;;;;;0.90;63.20;100351.72;3551502;27;20411;-54
2021/04/10 03:04:40;;;;;;;17.20;9.65;;;;;;;0.92;63.76;100349.28;3553260;27;20145;-54
2021/04/10 03:06:22;;;;;;;18.63;9.32;;;;;;;0.94;63.98;100355.34;3548928;27;20050;-53
2021/04/10 03:08:05;;;;;;;20.35;10.57;;;;;;;0.95;63.54;100359.69;3551169;27;20046;-45
2021/04/10 03:09:48;;;;;;;18.50;10.05;;;;;;;0.95;64.11;100352.03;3553081;27;20054;-45
2021/04/10 03:11:29;;;;;;;17.17;8.85;;;;;;;0.96;63.57;100362.31;3549603;27;20047;-44
2021/04/10 03:13:12;;;;;;;21.23;9.07;;;;;;;0.99;63.49;100362.50;3550716;27;20083;-44
2021/04/10 03:14:54;;;;;;;17.50;8.65;;;;;;;0.99;62.85;100365.06;3549426;27;20073;-45
2021/04/10 03:16:37;;;;;;;18.70;10.13;;;;;;;0.97;62.33;100361.53;3552906;27;20061;-45
2021/04/10 03:18:20;;;;;;;18.02;9.32;;;;;;;0.96;62.78;100364.00;3549890;27;20053;-45
2021/04/10 03:20:02;;;;;;;19.20;9.65;;;;;;;0.95;62.79;100362.25;3550679;27;20053;-45
2021/04/10 03:21:44;;;;;;;19.73;9.77;;;;;;;0.94;62.13;100366.44;3551215;27;20050;-45
2021/04/10 03:23:25;;;;;;;19.30;10.13;;;;;;;0.93;63.07;100372.38;3552412;27;20066;-45
2021/04/10 03:25:07;;;;;;;17.77;9.70;;;;;;;0.91;62.92;100371.38;3552807;27;20053;-44
2021/04/10 03:26:49;;;;;;;22.58;9.95;;;;;;;0.89;62.51;100372.06;3549384;27;20123;-45
2021/04/10 03:28:32;;;;;;;21.15;10.13;;;;;;;0.88;63.10;100375.41;3552548;27;20499;-45
2021/04/10 03:30:16;;;;;;;24.13;11.30;;;;;;;0.86;62.99;100372.75;3548383;27;20046;-45
2021/04/10 03:31:58;;;;;;;21.77;10.90;;;;;;;0.85;62.44;100372.66;3550349;27;20042;-54
2021/04/10 03:33:40;;;;;;;22.52;10.70;;;;;;;0.83;63.07;100370.00;3552205;27;20053;-52
2021/04/10 03:35:26;;;;;;;20.35;11.05;;;;;;;0.85;63.33;100368.44;3549141;27;20047;-53
2021/04/10 03:37:08;;;;;;;20.83;10.23;;;;;;;0.88;62.98;100372.88;3552503;27;20049;-53
2021/04/10 03:38:49;;;;;;;25.45;12.00;;;;;;;0.90;63.22;100374.72;3549014;27;20073;-54
2021/04/10 03:40:31;;;;;;;20.75;11.00;;;;;;;0.92;62.29;100373.13;3551646;27;20479;-54
2021/04/10 03:42:13;;;;;;;20.52;10.57;;;;;;;0.94;61.76;100373.22;3551454;27;20156;-55
2021/04/10 03:43:54;;;;;;;19.63;9.68;;;;;;;0.96;62.53;100371.66;3551918;27;20047;-53
2021/04/10 03:45:36;;;;;;;22.38;9.57;;;;;;;0.99;62.68;100372.72;3551119;27;20503;-54
2021/04/10 03:47:17;;;;;;;19.98;10.30;;;;;;;1.06;63.19;100375.69;3548664;27;20504;-54
2021/04/10 03:48:59;;;;;;;19.42;10.15;;;;;;;1.10;63.36;100375.09;3552754;27;20042;-52
2021/04/10 03:50:41;;;;;;;18.77;9.90;;;;;;;1.15;63.53;100368.59;3549173;27;20091;-53
2021/04/10 03:52:22;;;;;;;18.83;9.85;;;;;;;1.19;63.07;100373.09;3551819;27;20103;-54
2021/04/10 03:54:04;;;;;;;25.20;10.75;;;;;;;1.23;62.55;100382.75;3551462;27;20521;-53
2021/04/10 03:55:46;;;;;;;16.92;8.80;;;;;;;1.25;62.79;100367.47;3549740;27;20047;-45
2021/04/10 03:57:27;;;;;;;19.95;10.10;;;;;;;1.30;63.22;100371.19;3551215;27;20053;-45
2021/04/10 03:59:09;;;;;;;19.20;9.40;;;;;;;1.36;63.21;100374.16;3549012;27;20047;-54
2021/04/10 04:00:53;;;;;;;19.90;9.65;;;;;;;1.38;62.40;100376.00;3552562;27;20076;-52
2021/04/10 04:02:35;;;;;;;18.90;9.43;;;;;;;1.42;61.53;100373.66;3549459;27;20535;-45
2021/04/10 04:04:17;;;;;;;20.02;9.50;;;;;;;1.46;61.61;100363.72;3552319;27;20054;-52
2021/04/10 04:05:58;;;;;;;19.80;9.68;;;;;;;1.51;61.79;100372.56;3550030;27;20051;-54
2021/04/10 04:07:39;;;;;;;21.30;8.98;;;;;;;1.56;61.88;100370.25;3548997;27;20047;-54
2021/04/10 04:09:21;;;;;;;19.63;9.63;;;;;;;1.62;62.20;100378.31;3552218;27;20074;-55
2021/04/10 04:11:02;;;;;;;18.55;9.68;;;;;;;1.71;62.51;100378.84;3548977;27;20050;-46
2021/04/10 04:12:44;;;;;;;20.20;9.82;;;;;;;1.78;61.95;100375.00;3552279;27;20070;-45
2021/04/10 04:14:25;;;;;;;17.50;8.80;;;;;;;1.84;60.80;100377.03;3549662;27;20496;-45
2021/04/10 04:16:07;;;;;;;20.92;8.90;;;;;;;1.90;60.49;100375.75;3551645;27;20062;-45
2021/04/10 04:17:48;;;;;;;23.63;10.88;;;;;;;1.96;60.59;100377.78;3550154;27;20050;-45
2021/04/10 04:19:31;;;;;;;25.27;12.13;;;;;;;2.01;60.81;100373.81;3551143;27;20638;-46
2021/04/10 04:21:12;;;;;;;21.45;10.38;;;;;;;2.09;60.48;100371.69;3549845;27;20555;-52
2021/04/10 04:22:53;;;;;;;18.48;8.80;;;;;;;2.16;59.98;100381.50;3549925;27;20396;-46
2021/04/10 04:24:35;;;;;;;21.80;10.70;;;;;;;2.24;60.50;100384.53;3552167;27;20051;-44
2021/04/10 04:26:16;;;;;;;22.48;10.13;;;;;;;2.33;60.28;100382.50;3548919;27;20054;-46
2021/04/10 04:28:00;;;;;;;19.77;9.20;;;;;;;2.41;60.23;100381.25;3551739;27;20095;-45
2021/04/10 04:29:41;;;;;;;18.73;9.88;;;;;;;2.52;59.67;100381.88;3548934;27;20496;-44
2021/04/10 04:31:23;;;;;;;22.98;9.70;;;;;;;2.62;59.54;100376.47;3550014;27;20058;-44
2021/04/10 04:33:05;;;;;;;20.08;10.05;;;;;;;2.71;58.49;100378.66;3553185;27;20525;-44
2021/04/10 04:34:47;;;;;;;22.70;10.65;;;;;;;2.79;58.81;100372.31;3550821;27;20106;-45
2021/04/10 04:36:29;;;;;;;18.08;10.07;;;;;;;2.88;59.03;100382.19;3554494;27;20058;-45
2021/04/10 04:38:10;;;;;;;23.45;10.25;;;;;;;2.96;58.91;100373.25;3550990;27;20461;-54
2021/04/10 04:39:51;;;;;;;34.08;13.02;;;;;;;3.05;57.78;100380.56;3554167;27;20066;-54
2021/04/10 04:41:33;;;;;;;23.70;11.02;;;;;;;3.11;58.59;100380.88;3553502;27;20066;-52
2021/04/10 04:43:14;;;;;;;23.70;11.30;;;;;;;3.18;57.93;100382.97;3552172;27;20051;-53
2021/04/10 04:44:56;;;;;;;18.38;9.73;;;;;;;3.23;58.01;100381.56;3551933;27;20507;-52
2021/04/10 04:46:38;;;;;;;33.25;14.27;;;;;;;3.30;58.02;100382.78;3552788;27;20055;-45
2021/04/10 04:48:20;;;;;;;24.58;11.27;;;;;;;3.36;57.36;100379.66;3554370;27;20043;-46
2021/04/10 04:50:03;;;;;;;25.50;10.93;;;;;;;3.39;57.43;100383.28;3553491;27;20134;-46
2021/04/10 04:51:45;;;;;;;23.20;10.07;;;;;;;3.45;57.29;100377.56;3553744;27;20042;-46
2021/04/10 04:53:26;;;;;;;23.52;9.93;;;;;;;3.50;57.25;100381.28;3553847;27;20057;-44
2021/04/10 04:55:08;;;;;;;21.35;10.45;;;;;;;3.57;56.35;100382.50;3550981;27;20054;-46
2021/04/10 04:56:50;;;;;;;18.92;10.23;;;;;;;3.62;56.69;100379.34;3553384;27;20051;-46
2021/04/10 04:58:31;;;;;;;24.05;11.18;;;;;;;3.68;57.09;100383.94;3550842;27;20521;-44
2021/04/10 05:00:14;;;;;;;22.63;10.38;;;;;;;3.75;56.75;100382.56;3554254;27;20055;-44
2021/04/10 05:01:57;;;;;;;17.92;9.40;;;;;;;3.80;56.03;100379.44;3550192;27;20058;-55
2021/04/10 05:03:38;;;;;;;18.35;9.90;;;;;;;3.87;56.40;100382.34;3552123;27;20051;-52
2021/04/10 05:05:20;;;;;;;18.23;10.07;;;;;;;3.92;56.45;100379.19;3553503;27;20526;-55
2021/04/10 05:07:02;;;;;;;23.13;10.85;;;;;;;3.98;57.24;100387.25;3550641;27;20050;-52
2021/04/10 05:08:43;;;;;;;23.98;10.25;;;;;;;4.05;56.93;100383.28;3554111;27;20514;-53
2021/04/10 05:10:25;;;;;;;21.95;10.65;;;;;;;4.11;56.69;100373.34;3550576;27;20103;-53
2021/04/10 05:12:07;;;;;;;21.55;11.70;;;;;;;4.18;56.48;100375.41;3553478;27;20046;-54
2021/04/10 05:13:51;;;;;;;18.70;10.05;;;;;;;4.27;56.23;100372.41;3550753;27;20060;-54
2021/04/10 05:15:32;;;;;;;19.45;10.15;;;;;;;4.38;56.65;100375.53;3553116;27;20049;-53
2021/04/10 05:17:14;;;;;;;19.98;10.20;;;;;;;4.49;56.30;100366.66;3552666;27;20058;-51
2021/04/10 05:18:56;;;;;;;18.50;10.13;;;;;;;4.60;56.05;100374.91;3550544;27;20072;-46
2021/04/10 05:20:38;;;;;;;18.52;9.30;;;;;;;4.71;55.45;100372.84;3553908;27;20530;-46
2021/04/10 05:22:19;;;;;;;18.67;9.23;;;;;;;4.82;54.95;100371.66;3550392;27;20050;-53
2021/04/10 05:24:01;;;;;;;18.02;9.00;;;;;;;4.95;54.42;100375.69;3554083;27;20054;-54
2021/04/10 05:25:42;;;;;;;18.75;9.98;;;;;;;5.04;54.28;100368.44;3550780;27;20146;-52
2021/04/10 05:27:23;;;;;;;17.40;9.10;;;;;;;5.13;54.54;100373.09;3552905;27;20039;-51
2021/04/10 05:29:05;;;;;;;17.70;8.75;;;;;;;5.22;54.06;100373.56;3552615;27;20431;-52
2021/04/10 05:30:47;;;;;;;17.15;9.18;;;;;;;5.31;53.16;100370.53;3550474;27;20066;-52
2021/04/10 05:32:28;;;;;;;16.85;8.98;;;;;;;5.41;53.67;100369.25;3553547;27;20050;-51
2021/04/10 05:34:10;;;;;;;18.50;9.90;;;;;;;5.50;53.31;100377.38;3552465;27;20043;-53
2021/04/10 05:35:52;;;;;;;16.80;9.05;;;;;;;5.59;53.87;100382.97;3553810;27;20046;-46
2021/04/10 05:37:33;;;;;;;20.08;10.93;;;;;;;5.64;53.31;100381.47;3550555;27;20038;-46
2021/04/10 05:39:15;;;;;;;16.70;9.13;;;;;;;5.72;53.18;100382.69;3551616;27;20053;-46
2021/04/10 05:40:56;;;;;;;17.13;8.63;;;;;;;5.80;52.76;100379.56;3554777;27;20053;-53
2021/04/10 05:42:37;;;;;;;19.00;8.98;;;;;;;5.88;52.90;100380.78;3550862;27;20168;-51
2021/04/10 05:44:19;;;;;;;16.02;8.90;;;;;;;5.94;52.38;100378.47;3552799;27;20187;-52
2021/04/10 05:46:00;;;;;;;17.15;8.77;;;;;;;6.02;52.61;100383.97;3550107;27;20049;-54
2021/04/10 05:47:42;;;;;;;15.60;8.82;;;;;;;6.08;52.10;100379.97;3553532;27;20051;-53
2021/04/10 05:49:23;;;;;;;20.33;10.07;;;;;;;6.17;51.89;100387.22;3552901;27;20042;-50
2021/04/10 05:51:05;;;;;;;20.35;9.13;;;;;;;6.25;52.09;100384.97;3551740;27;20039;-52
2021/04/10 05:52:47;;;;;;;17.23;9.18;;;;;;;6.32;52.01;100384.41;3553748;27;20061;-51
2021/04/10 05:54:28;;;;;;;16.25;8.88;;;;;;;6.43;51.32;100385.72;3552456;27;20046;-54
2021/04/10 05:56:14;;;;;;;21.63;10.50;;;;;;;6.57;51.58;100382.84;3553917;27;20054;-53
2021/04/10 05:57:56;;;;;;;21.42;9.63;;;;;;;6.68;51.07;100382.47;3550353;27;20042;-45
2021/04/10 05:59:37;;;;;;;19.92;9.93;;;;;;;6.74;50.39;100383.56;3553297;27;20471;-45
2021/04/10 06:01:19;;;;;;;19.35;9.63;;;;;;;6.78;50.01;100378.56;3550563;27;20043;-50
2021/04/10 06:03:07;;;;;;;19.88;9.48;;;;;;;6.85;50.10;100378.00;3550695;27;20047;-45
2021/04/10 06:04:49;;;;;;;17.27;9.52;;;;;;;6.93;49.93;100373.16;3553275;27;20443;-45
2021/04/10 06:06:31;;;;;;;19.67;9.90;;;;;;;7.05;49.92;100378.84;3552943;27;20085;-53
2021/04/10 06:08:13;;;;;;;16.10;8.65;;;;;;;7.16;49.24;100386.09;3553914;27;20050;-51
2021/04/10 06:09:54;;;;;;;17.73;9.32;;;;;;;7.26;49.49;100381.38;3550516;27;20058;-46
2021/04/10 06:11:35;;;;;;;15.52;8.57;;;;;;;7.38;49.58;100380.94;3552607;27;20057;-47
2021/04/10 06:13:18;;;;;;;15.15;8.05;;;;;;;7.48;48.87;100382.19;3548931;27;20423;-45
2021/04/10 06:15:06;;;;;;;19.20;9.60;;;;;;;7.58;48.67;100381.69;3550126;27;20039;-45
2021/04/10 06:16:48;;;;;;;27.38;11.32;;;;;;;7.71;48.13;100377.00;3552282;27;20054;-45
2021/04/10 06:18:30;;;;;;;18.98;8.90;;;;;;;7.79;47.85;100375.53;3550303;27;20056;-45
2021/04/10 06:20:14;;;;;;;17.95;8.65;;;;;;;7.90;47.94;100388.84;3553464;27;20055;-46
2021/04/10 06:21:56;;;;;;;;;;;;;;;7.97;47.28;100390.81;3550086;27;20054;-46
2021/04/10 06:23:38;;;;;;;26.85;10.48;;;;;;;8.09;47.45;100385.22;3551761;27;19931;-52
2021/04/10 06:25:19;;;;;;;19.15;8.30;;;;;;;8.20;47.18;100384.78;3552005;27;20047;-47
2021/04/10 06:27:01;;;;;;;15.43;8.07;;;;;;;8.31;46.07;100390.31;3550428;27;20534;-46
2021/04/10 06:28:42;;;;;;;15.13;7.13;;;;;;;8.40;45.21;100387.16;3552524;27;20095;-52
2021/04/10 06:30:24;;;;;;;15.82;7.78;;;;;;;8.45;45.75;100382.13;3549870;27;21278;-52
2021/04/10 06:32:07;;;;;;;15.10;7.65;;;;;;;8.51;44.96;100375.47;3553484;27;20053;-52
2021/04/10 06:33:48;;;;;;;12.32;6.93;;;;;;;8.57;45.30;100385.13;3549485;27;20043;-53
2021/04/10 06:35:30;;;;;;;15.40;8.25;;;;;;;8.60;45.52;100378.34;3551049;27;20053;-52
2021/04/10 06:37:12;;;;;;;14.32;7.05;;;;;;;8.67;44.96;100376.84;3551625;27;20054;-52
2021/04/10 06:38:54;;;;;;;12.93;6.93;;;;;;;8.71;44.47;100375.22;3552188;27;20053;-46
2021/04/10 06:40:37;;;;;;;16.80;6.60;;;;;;;8.74;44.71;100372.75;3552982;27;20058;-47
2021/04/10 06:42:19;;;;;;;19.13;8.65;;;;;;;8.84;44.33;100372.22;3549366;27;20500;-52
2021/04/10 06:44:02;;;;;;;13.50;7.00;;;;;;;8.99;43.71;100374.41;3553290;27;20049;-52
2021/04/10 06:45:43;;;;;;;16.83;7.45;;;;;;;9.07;42.36;100370.38;3549570;27;20081;-50
2021/04/10 06:47:27;;;;;;;14.00;7.53;;;;;;;9.13;42.90;100370.53;3551043;27;20046;-50
2021/04/10 06:49:10;;;;;;;17.95;7.95;;;;;;;9.21;43.31;100372.50;3551842;27;20053;-51
2021/04/10 06:50:52;;;;;;;13.98;6.57;;;;;;;9.34;42.99;100374.63;3549364;27;20496;-50
2021/04/10 06:52:39;;;;;;;15.07;7.13;;;;;;;9.21;42.32;100375.09;3553488;27;20050;-47
2021/04/10 06:54:24;;;;;;;12.68;7.32;;;;;;;9.13;42.87;100380.00;3548940;27;20047;-46
2021/04/10 06:56:07;;;;;;;12.20;6.70;;;;;;;9.09;42.09;100394.56;3553009;27;20080;-46
2021/04/10 06:57:55;;;;;;;13.85;6.57;;;;;;;9.12;42.77;100386.91;3550622;27;20054;-46
2021/04/10 06:59:51;;;;;;;14.13;6.70;;;;;;;9.28;44.04;100377.91;3550774;27;20051;-46
2021/04/10 07:01:34;;;;;;;11.50;6.60;;;;;;;9.43;42.13;100384.41;3552997;27;20069;-50
2021/04/10 07:03:15;;;;;;;10.00;5.82;;;;;;;9.54;42.81;100378.72;3549636;27;20046;-51
2021/04/10 07:04:57;;;;;;;11.85;6.60;;;;;;;9.65;42.99;100380.75;3552380;27;20463;-51
2021/04/10 07:06:39;;;;;;;12.80;6.97;;;;;;;9.71;41.15;100386.97;3549490;27;20051;-50
2021/04/10 07:08:22;;;;;;;11.55;6.63;;;;;;;9.69;42.35;100383.44;3552839;27;20099;-46
2021/04/10 07:10:04;;;;;;;10.98;7.00;;;;;;;9.83;42.28;100381.25;3551744;27;20551;-47
2021/04/10 07:11:46;;;;;;;14.18;7.35;;;;;;;9.95;42.47;100377.25;3550378;27;20050;-46
2021/04/10 07:13:27;;;;;;;14.05;7.25;;;;;;;10.05;41.91;100387.94;3551543;27;20046;-46
2021/04/10 07:15:11;;;;;;;13.10;6.97;;;;;;;10.16;41.92;100379.53;3550425;27;20042;-46
2021/04/10 07:16:55;;;;;;;12.77;6.82;;;;;;;10.30;41.92;100386.88;3552182;27;20050;-50
2021/04/10 07:18:38;;;;;;;12.20;6.80;;;;;;;10.35;41.30;100381.78;3550786;27;20057;-50
2021/04/10 07:20:25;;;;;;;11.88;6.68;;;;;;;10.31;40.13;100379.94;3549307;27;20066;-45
2021/04/10 07:22:08;;;;;;;12.40;7.32;;;;;;;10.33;40.66;100387.78;3551924;27;20080;-46
2021/04/10 07:23:53;;;;;;;14.00;6.90;;;;;;;10.35;41.01;100378.31;3551417;27;20137;-46
2021/04/10 07:25:35;;;;;;;;;;;;;;;10.48;41.08;100383.88;3552905;27;20039;-46
2021/04/10 07:27:18;;;;;;;15.48;6.95;;;;;;;10.50;40.20;100386.50;3550461;27;19923;-51
2021/04/10 07:28:59;;;;;;;13.27;6.72;;;;;;;10.42;40.08;100395.78;3550582;27;20049;-52
2021/04/10 07:30:52;;;;;;;10.15;6.32;;;;;;;10.42;40.19;100378.53;3552704;27;20070;-52
2021/04/10 07:32:36;;;;;;;12.85;7.13;;;;;;;10.40;40.32;100389.69;3549101;27;20051;-49
2021/04/10 07:34:21;;;;;;;12.85;7.15;;;;;;;10.44;40.98;100387.22;3552656;27;20088;-51
2021/04/10 07:36:04;;;;;;;11.25;6.65;;;;;;;10.55;39.97;100384.91;3548743;27;20042;-50
2021/04/10 07:37:48;;;;;;;15.10;7.25;;;;;;;10.57;40.23;100393.59;3550764;27;20058;-51
2021/04/10 07:39:44;;;;;;;11.30;7.40;;;;;;;10.63;39.63;100387.69;3550593;27;20048;-52
2021/04/10 07:41:26;;;;;;;11.65;6.53;;;;;;;10.71;39.72;100387.88;3549397;27;20051;-50
2021/04/10 07:43:07;;;;;;;11.52;6.82;;;;;;;10.70;38.65;100375.75;3552357;27;20053;-50
2021/04/10 07:44:48;;;;;;;11.15;6.93;;;;;;;10.85;40.45;100381.31;3548833;27;20051;-50
2021/04/10 07:46:30;;;;;;;11.65;6.40;;;;;;;10.97;39.45;100375.50;3551919;27;20046;-52
2021/04/10 07:48:14;;;;;;;15.57;7.60;;;;;;;11.03;39.22;100383.47;3549214;27;20082;-51
2021/04/10 07:50:12;;;;;;;10.85;6.53;;;;;;;11.14;39.69;100371.59;3549981;27;20396;-50
2021/04/10 07:51:55;;;;;;;11.65;7.10;;;;;;;11.11;38.24;100363.75;3552340;27;20105;-52
2021/04/10 07:53:38;;;;;;;10.00;6.75;;;;;;;11.18;38.23;100375.13;3550890;27;20589;-52
2021/04/10 07:55:40;;;;;;;15.43;7.00;;;;;;;11.32;39.54;100378.06;3552054;27;20046;-46
2021/04/10 07:57:21;;;;;;;12.63;7.38;;;;;;;11.43;37.33;100380.06;3550656;27;20047;-47